Time;durP1;ratioP1;P1;durP2;ratioP2;P2;SDS_P1;SDS_P2;PMS_P1;PMS_P2;Temp;Humidity;BMP_temperature;BMP_pressure;BME280_temperature;BME280_humidity;BME280_pressure;Samples;Min_cycle;Max_cycle;Signal;HPM_P1;HPM_P2
2021/11/04 00:01:17;;;;;;;8.50;2.38;;;8.30;93.80;;;;;;5025147;28;20559;-57
2021/11/04 00:03:43;;;;;;;8.10;1.90;;;8.20;93.80;;;;;;5025936;28;20584;-57
2021/11/04 00:06:10;;;;;;;9.93;2.60;;;8.30;93.90;;;;;;5025435;28;20604;-59
2021/11/04 00:08:37;;;;;;;2.55;1.40;;;8.30;94.10;;;;;;5025879;28;20057;-58
2021/11/04 00:11:04;;;;;;;11.35;1.85;;;8.30;93.80;;;;;;5025718;28;20087;-54
2021/11/04 00:13:31;;;;;;;10.23;2.90;;;8.20;93.90;;;;;;5024233;28;20049;-56
2021/11/04 00:15:58;;;;;;;10.32;1.70;;;8.20;93.70;;;;;;5024363;28;20054;-56
2021/11/04 00:18:25;;;;;;;9.43;1.77;;;8.20;93.80;;;;;;5013994;28;20084;-56
2021/11/04 00:20:52;;;;;;;7.20;1.80;;;8.20;93.50;;;;;;5025409;28;20586;-56
2021/11/04 00:23:19;;;;;;;8.57;2.75;;;8.10;93.80;;;;;;5023946;28;20061;-56
2021/11/04 00:25:48;;;;;;;9.40;2.50;;;8.10;93.70;;;;;;5005491;28;20054;-57
2021/11/04 00:28:16;;;;;;;13.77;1.95;;;8.10;93.90;;;;;;5021827;28;20060;-56
2021/11/04 00:30:44;;;;;;;6.72;1.50;;;8.00;93.60;;;;;;5024905;28;20061;-55
2021/11/04 00:33:12;;;;;;;6.13;1.70;;;8.00;93.70;;;;;;5023509;28;20045;-59
2021/11/04 00:35:39;;;;;;;6.25;1.67;;;8.00;93.80;;;;;;5024287;28;20854;-56
2021/11/04 00:38:05;;;;;;;12.10;1.60;;;8.00;93.80;;;;;;5024763;28;20076;-53
2021/11/04 00:40:35;;;;;;;15.77;2.78;;;8.10;93.80;;;;;;5024738;28;20065;-56
2021/11/04 00:43:03;;;;;;;12.68;1.55;;;8.10;94.10;;;;;;5024645;28;20085;-60
2021/11/04 00:45:30;;;;;;;8.50;1.70;;;8.10;93.80;;;;;;5024766;28;20053;-57
2021/11/04 00:47:56;;;;;;;7.75;1.80;;;8.10;93.70;;;;;;5024903;28;20133;-58
2021/11/04 00:50:24;;;;;;;5.97;1.88;;;8.10;93.70;;;;;;5024958;28;20379;-57
2021/11/04 00:52:51;;;;;;;10.30;2.28;;;8.10;93.80;;;;;;5024537;28;20045;-57
2021/11/04 00:55:18;;;;;;;3.28;1.40;;;8.10;93.70;;;;;;5023606;28;20061;-56
2021/11/04 00:57:46;;;;;;;3.08;2.03;;;8.10;93.60;;;;;;4677090;28;9999800;-54
2021/11/04 01:00:13;;;;;;;7.63;1.70;;;8.00;93.60;;;;;;5024201;28;20447;-59
2021/11/04 01:02:40;;;;;;;5.72;1.60;;;8.00;93.70;;;;;;5027216;28;20488;-59
2021/11/04 01:05:07;;;;;;;6.05;1.70;;;8.00;93.70;;;;;;5027606;28;20422;-60
2021/11/04 01:07:34;;;;;;;3.47;1.30;;;8.00;93.70;;;;;;5026340;28;20119;-60
2021/11/04 01:10:01;;;;;;;6.25;1.50;;;7.90;93.70;;;;;;5024327;28;20049;-59
2021/11/04 01:12:27;;;;;;;5.28;1.20;;;7.90;93.70;;;;;;5026880;28;20061;-61
2021/11/04 01:14:54;;;;;;;4.30;1.80;;;8.00;93.70;;;;;;5027255;28;20069;-61
2021/11/04 01:17:21;;;;;;;6.20;1.60;;;7.90;93.60;;;;;;5027995;28;20480;-59
2021/11/04 01:19:48;;;;;;;9.82;2.55;;;8.00;93.70;;;;;;5027589;28;20053;-59
2021/11/04 01:22:15;;;;;;;5.35;2.38;;;8.00;93.70;;;;;;5027775;28;20475;-60
2021/11/04 01:24:42;;;;;;;7.00;1.63;;;7.90;93.60;;;;;;5027538;28;20137;-59
2021/11/04 01:27:08;;;;;;;7.22;1.48;;;7.90;93.80;;;;;;5027017;28;20049;-59
2021/11/04 01:29:35;;;;;;;3.45;1.50;;;7.90;93.80;;;;;;5026386;28;20115;-59
2021/11/04 01:32:02;;;;;;;3.78;1.38;;;7.90;93.90;;;;;;5027176;28;20061;-60
2021/11/04 01:34:29;;;;;;;7.60;1.70;;;8.00;93.70;;;;;;5027074;28;20076;-59
2021/11/04 01:36:56;;;;;;;5.28;1.55;;;7.90;93.50;;;;;;5025997;28;20041;-59
2021/11/04 01:39:23;;;;;;;2.35;1.33;;;7.90;93.50;;;;;;5027059;28;20058;-60
2021/11/04 01:41:51;;;;;;;3.45;1.80;;;7.90;93.60;;;;;;5026878;28;20127;-60
2021/11/04 01:44:18;;;;;;;3.25;1.33;;;7.90;93.60;;;;;;5026389;28;20045;-59
2021/11/04 01:46:45;;;;;;;12.00;1.65;;;7.90;93.50;;;;;;5027768;28;20115;-60
2021/11/04 01:49:12;;;;;;;5.93;1.33;;;7.80;93.70;;;;;;5026101;28;20053;-60
2021/11/04 01:51:39;;;;;;;6.35;1.70;;;7.80;93.50;;;;;;5027263;28;20072;-60
2021/11/04 01:54:05;;;;;;;6.97;1.60;;;7.80;93.30;;;;;;5025834;28;20145;-60
2021/11/04 01:56:37;;;;;;;4.47;1.00;;;7.70;93.30;;;;;;5026666;28;20041;-61
2021/11/04 01:59:04;;;;;;;3.58;1.65;;;7.70;93.60;;;;;;5026629;28;20511;-59
2021/11/04 02:01:31;;;;;;;4.53;1.45;;;7.60;93.40;;;;;;5026941;28;20073;-60
2021/11/04 02:04:25;;;;;;;5.82;1.15;;;7.60;93.50;;;;;;5027218;28;20045;-60
2021/11/04 02:07:13;;;;;;;3.67;1.10;;;7.50;93.60;;;;;;5025662;28;20050;-60
2021/11/04 02:09:50;;;;;;;6.75;1.45;;;7.50;93.90;;;;;;5026427;28;20389;-59
2021/11/04 02:12:23;;;;;;;9.35;1.45;;;7.50;93.50;;;;;;5025559;28;20404;-59
2021/11/04 02:14:53;;;;;;;6.30;1.13;;;7.50;93.60;;;;;;5006337;28;20066;-59
2021/11/04 02:17:21;;;;;;;3.10;1.27;;;7.50;93.50;;;;;;5028569;28;20535;-63
2021/11/04 02:19:57;;;;;;;5.13;1.48;;;7.50;93.50;;;;;;5025639;28;20053;-60
2021/11/04 02:22:26;;;;;;;2.65;1.30;;;7.50;93.50;;;;;;5027562;28;20092;-60
2021/11/04 02:25:19;;;;;;;2.85;1.02;;;7.40;93.40;;;;;;5030977;28;20141;-59
2021/11/04 02:27:51;;;;;;;1.92;0.98;;;7.40;93.50;;;;;;5030451;28;20088;-59
2021/11/04 02:30:22;;;;;;;3.92;0.93;;;7.30;93.50;;;;;;5029830;28;20081;-58
2021/11/04 02:32:50;;;;;;;3.35;1.23;;;7.30;93.60;;;;;;5030574;28;20514;-59
2021/11/04 02:35:17;;;;;;;2.53;1.08;;;7.30;93.70;;;;;;5030070;28;20065;-60
2021/11/04 02:37:44;;;;;;;5.53;1.42;;;7.30;93.70;;;;;;5029183;28;20484;-60
2021/11/04 02:40:11;;;;;;;5.32;1.85;;;7.30;93.70;;;;;;5012267;28;20107;-59
2021/11/04 02:42:38;;;;;;;6.50;1.65;;;7.30;93.60;;;;;;5012536;28;20462;-59
2021/11/04 02:45:05;;;;;;;3.63;1.27;;;7.40;93.70;;;;;;5030791;28;20164;-59
2021/11/04 02:47:32;;;;;;;9.80;1.50;;;7.40;93.50;;;;;;5029353;28;20057;-59
2021/11/04 02:49:59;;;;;;;3.70;1.63;;;7.40;93.70;;;;;;5030324;28;20141;-60
2021/11/04 02:52:26;;;;;;;2.33;1.45;;;7.40;93.70;;;;;;5019456;28;20083;-59
2021/11/04 02:54:54;;;;;;;3.72;1.58;;;7.40;93.70;;;;;;5034174;28;20365;-59
2021/11/04 02:57:21;;;;;;;3.40;1.27;;;7.40;93.50;;;;;;5028630;28;20095;-59
2021/11/04 02:59:48;;;;;;;4.80;1.73;;;7.40;93.50;;;;;;4681444;28;10000711;-59
2021/11/04 03:02:15;;;;;;;4.88;1.25;;;7.40;93.40;;;;;;5020395;28;20049;-59
2021/11/04 03:04:41;;;;;;;5.95;1.33;;;7.40;93.60;;;;;;5029261;28;20132;-59
2021/11/04 03:07:08;;;;;;;5.63;2.08;;;7.50;93.30;;;;;;5028849;28;20069;-60
2021/11/04 03:09:35;;;;;;;5.10;1.40;;;7.50;93.30;;;;;;5030548;28;20492;-59
2021/11/04 03:12:03;;;;;;;6.88;1.10;;;7.50;93.30;;;;;;5030900;28;20098;-60
2021/11/04 03:14:29;;;;;;;3.47;1.35;;;7.50;93.50;;;;;;5031848;28;20057;-60
2021/11/04 03:16:57;;;;;;;5.22;1.50;;;7.50;93.40;;;;;;5031126;28;20136;-59
2021/11/04 03:19:25;;;;;;;7.57;2.53;;;7.50;93.40;;;;;;5029160;28;20076;-59
2021/11/04 03:21:53;;;;;;;2.08;0.80;;;7.40;92.90;;;;;;5029275;28;20515;-59
2021/11/04 03:24:21;;;;;;;2.65;1.45;;;7.40;93.30;;;;;;5028540;28;20529;-60
2021/11/04 03:27:02;;;;;;;4.55;1.38;;;7.50;93.50;;;;;;5028736;28;20189;-59
2021/11/04 03:29:34;;;;;;;3.40;1.30;;;7.50;93.00;;;;;;5028187;28;20045;-59
2021/11/04 03:32:01;;;;;;;6.80;1.40;;;7.50;93.20;;;;;;5028099;28;20884;-59
2021/11/04 03:34:28;;;;;;;3.67;1.30;;;7.40;93.10;;;;;;5027346;28;20684;-60
2021/11/04 03:36:55;;;;;;;6.93;2.20;;;7.40;93.20;;;;;;5018008;28;20433;-60
2021/11/04 03:39:22;;;;;;;2.65;1.15;;;7.40;93.40;;;;;;5022826;28;20057;-60
2021/11/04 03:41:53;;;;;;;3.30;1.33;;;7.40;93.20;;;;;;5022791;28;20050;-60
2021/11/04 03:44:20;;;;;;;5.68;1.02;;;7.40;93.10;;;;;;5027319;28;20092;-61
2021/11/04 03:46:47;;;;;;;2.42;1.10;;;7.40;93.20;;;;;;5007866;28;20128;-60
2021/11/04 03:49:16;;;;;;;5.38;1.27;;;7.40;92.90;;;;;;5018323;28;20754;-60
2021/11/04 03:51:43;;;;;;;3.80;1.00;;;7.40;93.10;;;;;;5027428;28;20411;-58
2021/11/04 03:54:11;;;;;;;2.95;1.08;;;7.40;93.20;;;;;;5026945;28;20050;-59
2021/11/04 03:56:39;;;;;;;3.05;0.90;;;7.50;93.10;;;;;;5025586;28;20045;-60
2021/11/04 03:59:06;;;;;;;4.97;1.00;;;7.40;93.00;;;;;;5025968;28;20562;-60
2021/11/04 04:01:33;;;;;;;3.33;1.10;;;7.40;92.60;;;;;;5025171;28;20092;-61
2021/11/04 04:04:01;;;;;;;3.25;0.90;;;7.40;92.80;;;;;;5019607;28;20049;-59
2021/11/04 04:06:28;;;;;;;4.22;0.70;;;7.40;92.70;;;;;;5028509;28;20144;-60
2021/11/04 04:08:55;;;;;;;2.28;0.95;;;7.40;92.80;;;;;;5028148;28;20091;-60
2021/11/04 04:11:23;;;;;;;4.53;1.00;;;7.40;92.80;;;;;;5011031;28;20046;-58
2021/11/04 04:13:51;;;;;;;8.65;0.98;;;7.40;92.90;;;;;;5027313;28;20103;-58
2021/11/04 04:16:18;;;;;;;5.78;1.00;;;7.40;92.70;;;;;;5026634;28;20045;-58
2021/11/04 04:18:45;;;;;;;5.15;0.90;;;7.40;92.70;;;;;;5028092;28;20106;-59
2021/11/04 04:21:12;;;;;;;2.30;0.85;;;7.40;92.70;;;;;;5026567;28;20060;-60
2021/11/04 04:23:39;;;;;;;3.53;1.05;;;7.50;92.70;;;;;;5026932;28;20103;-59
2021/11/04 04:26:06;;;;;;;4.50;1.65;;;7.50;92.50;;;;;;5027124;28;20111;-58
2021/11/04 04:28:33;;;;;;;2.90;1.02;;;7.40;92.40;;;;;;5028151;28;20053;-59
2021/11/04 04:30:59;;;;;;;2.88;0.70;;;7.40;92.60;;;;;;5028219;28;20076;-59
2021/11/04 04:33:26;;;;;;;3.67;1.00;;;7.40;92.50;;;;;;5028102;28;20057;-59
2021/11/04 04:35:55;;;;;;;2.90;0.90;;;7.40;92.30;;;;;;5028217;28;20071;-58
2021/11/04 04:38:22;;;;;;;2.78;0.80;;;7.40;92.60;;;;;;5028224;28;20136;-59
2021/11/04 04:40:49;;;;;;;3.58;0.90;;;7.40;92.40;;;;;;5027272;28;20167;-57
2021/11/04 04:43:17;;;;;;;6.53;0.98;;;7.30;92.50;;;;;;5027055;28;20083;-59
2021/11/04 04:45:43;;;;;;;2.67;1.10;;;7.40;92.70;;;;;;5025628;28;20046;-59
2021/11/04 04:48:10;;;;;;;4.80;1.15;;;7.40;92.70;;;;;;5027173;28;20072;-59
2021/11/04 04:50:38;;;;;;;1.58;0.77;;;7.40;92.60;;;;;;5027898;28;20092;-59
2021/11/04 04:53:06;;;;;;;5.45;0.80;;;7.50;92.50;;;;;;5016794;28;20042;-59
2021/11/04 04:55:33;;;;;;;4.40;1.00;;;7.50;92.30;;;;;;5025886;28;20060;-60
2021/11/04 04:58:00;;;;;;;1.75;0.50;;;7.50;92.20;;;;;;5027520;28;20041;-58
2021/11/04 05:00:26;;;;;;;1.88;0.80;;;7.50;92.40;;;;;;5027758;28;20144;-58
2021/11/04 05:02:53;;;;;;;2.33;0.80;;;7.40;92.30;;;;;;5025808;28;20043;-59
2021/11/04 05:05:20;;;;;;;3.85;0.60;;;7.50;92.50;;;;;;5027611;28;20100;-58
2021/11/04 05:07:48;;;;;;;4.13;1.17;;;7.50;92.20;;;;;;5027816;28;20062;-59
2021/11/04 05:10:15;;;;;;;2.80;0.88;;;7.50;91.70;;;;;;5027076;28;20092;-58
2021/11/04 05:12:42;;;;;;;4.95;1.63;;;7.50;91.80;;;;;;5027046;28;20072;-60
2021/11/04 05:15:09;;;;;;;2.88;0.70;;;7.50;92.10;;;;;;5006457;28;20050;-59
2021/11/04 05:17:36;;;;;;;5.82;1.00;;;7.50;91.90;;;;;;5020548;28;20065;-58
2021/11/04 05:20:04;;;;;;;5.38;0.90;;;7.50;92.20;;;;;;5026571;28;20520;-59
2021/11/04 05:22:31;;;;;;;2.50;0.80;;;7.50;91.90;;;;;;5027263;28;20077;-58
2021/11/04 05:24:58;;;;;;;6.05;0.70;;;7.50;92.30;;;;;;5027522;28;20088;-61
2021/11/04 05:27:25;;;;;;;8.00;0.90;;;7.50;92.20;;;;;;5026724;28;20049;-60
2021/11/04 05:29:52;;;;;;;2.75;0.75;;;7.60;92.10;;;;;;5027543;28;20491;-59
2021/11/04 05:32:19;;;;;;;2.25;1.00;;;7.50;92.00;;;;;;5027427;28;20041;-59
2021/11/04 05:34:46;;;;;;;10.40;0.93;;;7.50;92.00;;;;;;5026426;28;20045;-59
2021/11/04 05:37:13;;;;;;;4.95;0.93;;;7.50;91.90;;;;;;5026604;28;20073;-58
2021/11/04 05:39:40;;;;;;;1.45;0.65;;;7.50;92.00;;;;;;5016452;28;20140;-59
2021/11/04 05:42:07;;;;;;;2.33;1.05;;;7.60;91.90;;;;;;5039395;28;20041;-58
2021/11/04 05:44:35;;;;;;;7.03;1.20;;;7.60;91.90;;;;;;5026217;28;20053;-58
2021/11/04 05:47:03;;;;;;;3.10;1.00;;;7.40;91.80;;;;;;5026952;28;20046;-59
2021/11/04 05:49:30;;;;;;;2.30;0.57;;;7.50;92.10;;;;;;5026003;28;20045;-59
2021/11/04 05:51:57;;;;;;;1.25;0.77;;;7.40;91.90;;;;;;5027564;28;20528;-58
2021/11/04 05:54:24;;;;;;;3.40;0.95;;;7.50;91.80;;;;;;5027047;28;20049;-59
2021/11/04 05:56:51;;;;;;;3.45;1.02;;;7.50;91.80;;;;;;5026137;28;20508;-58
2021/11/04 05:59:17;;;;;;;6.55;1.20;;;7.50;92.00;;;;;;5012763;28;20096;-60
2021/11/04 06:01:44;;;;;;;1.55;0.77;;;7.60;92.10;;;;;;5015252;28;20104;-59
2021/11/04 06:04:11;;;;;;;2.25;1.02;;;7.40;91.50;;;;;;5026534;28;20079;-59
2021/11/04 06:06:38;;;;;;;2.00;1.02;;;7.40;91.90;;;;;;5033148;28;20085;-59
2021/11/04 06:09:05;;;;;;;1.38;0.90;;;7.40;91.90;;;;;;5033555;28;20053;-58
2021/11/04 06:11:32;;;;;;;2.25;1.20;;;7.40;92.00;;;;;;5033293;28;20053;-58
2021/11/04 06:13:58;;;;;;;1.73;0.93;;;7.40;92.00;;;;;;5033415;28;20503;-59
2021/11/04 06:16:25;;;;;;;3.65;1.25;;;7.40;91.40;;;;;;5033943;28;20401;-58
2021/11/04 06:18:52;;;;;;;2.45;1.23;;;7.40;92.00;;;;;;5031704;28;20049;-58
2021/11/04 06:21:19;;;;;;;5.32;1.83;;;7.40;91.80;;;;;;5033075;28;20623;-58
2021/11/04 06:23:46;;;;;;;3.75;1.02;;;7.40;91.90;;;;;;5033447;28;20080;-59
2021/11/04 06:26:14;;;;;;;3.90;0.90;;;7.30;91.90;;;;;;5030985;28;20054;-58
2021/11/04 06:28:41;;;;;;;3.22;1.50;;;7.30;91.60;;;;;;5034159;28;20326;-59
2021/11/04 06:31:07;;;;;;;2.97;1.30;;;7.30;92.10;;;;;;5035501;28;20067;-59
2021/11/04 06:33:34;;;;;;;5.13;1.58;;;7.30;92.10;;;;;;5034203;28;20563;-58
2021/11/04 06:36:01;;;;;;;5.15;1.20;;;7.40;92.10;;;;;;5031499;28;20125;-57
2021/11/04 06:38:28;;;;;;;4.15;1.77;;;7.50;92.00;;;;;;5032843;28;20520;-58
2021/11/04 06:40:54;;;;;;;3.92;1.50;;;7.30;92.10;;;;;;5031811;28;20099;-60
2021/11/04 06:43:21;;;;;;;3.03;1.27;;;7.30;92.10;;;;;;5033599;28;20049;-58
2021/11/04 06:45:52;;;;;;;4.72;1.50;;;7.40;92.20;;;;;;5033682;28;20060;-65
2021/11/04 06:48:42;;;;;;;2.42;1.08;;;7.30;91.90;;;;;;5033356;28;20102;-58
2021/11/04 06:51:13;;;;;;;7.00;1.45;;;7.20;91.70;;;;;;5031143;28;20080;-56
2021/11/04 06:53:42;;;;;;;2.20;1.00;;;7.30;92.20;;;;;;5030705;28;20050;-58
2021/11/04 06:56:09;;;;;;;4.10;1.23;;;7.30;91.90;;;;;;5031452;28;20099;-59
2021/11/04 06:58:38;;;;;;;4.82;1.58;;;7.30;92.20;;;;;;5028454;28;20493;-61
2021/11/04 07:01:12;;;;;;;2.47;1.23;;;7.30;92.00;;;;;;5026751;28;20135;-58
2021/11/04 07:03:50;;;;;;;;;;;7.30;92.00;;;;;;5031258;28;20073;-59
2021/11/04 07:06:29;;;;;;;4.80;1.30;;;7.40;91.60;;;;;;5033090;28;19951;-59
2021/11/04 07:08:57;;;;;;;3.50;1.35;;;7.30;91.90;;;;;;5011911;28;20097;-59
2021/11/04 07:11:25;;;;;;;4.00;1.38;;;7.30;92.10;;;;;;5024557;28;20081;-59
2021/11/04 07:13:52;;;;;;;8.27;1.30;;;7.30;92.30;;;;;;5029190;28;20072;-60
2021/11/04 07:16:22;;;;;;;2.05;1.35;;;7.40;92.20;;;;;;5029530;28;20041;-58
2021/11/04 07:18:50;;;;;;;5.75;1.35;;;7.30;92.00;;;;;;5026916;28;20095;-59
2021/11/04 07:21:37;;;;;;;5.68;1.60;;;7.40;92.20;;;;;;5027481;28;20041;-59
2021/11/04 07:24:05;;;;;;;6.07;1.85;;;7.30;92.20;;;;;;5013919;28;20076;-59
2021/11/04 07:26:41;;;;;;;6.07;1.80;;;7.40;92.30;;;;;;5029041;28;20472;-61
2021/11/04 07:29:10;;;;;;;6.03;1.65;;;7.30;92.10;;;;;;5027544;28;20092;-59
2021/11/04 07:31:41;;;;;;;3.95;2.08;;;7.30;92.10;;;;;;5024639;28;20084;-57
2021/11/04 07:34:10;;;;;;;5.53;1.40;;;7.40;92.20;;;;;;5028520;28;20133;-60
2021/11/04 07:36:38;;;;;;;2.45;1.42;;;7.30;92.20;;;;;;5029182;28;20049;-59
2021/11/04 07:39:08;;;;;;;4.72;1.67;;;7.30;92.10;;;;;;5029625;28;20539;-58
2021/11/04 07:41:35;;;;;;;3.38;1.30;;;7.40;92.20;;;;;;5027274;28;20420;-56
2021/11/04 07:44:03;;;;;;;6.40;1.80;;;7.40;92.30;;;;;;5028049;28;20155;-57
2021/11/04 07:46:30;;;;;;;3.10;1.48;;;7.40;92.20;;;;;;5028972;28;20145;-57
2021/11/04 07:48:59;;;;;;;3.05;1.35;;;7.50;92.20;;;;;;5026022;28;20068;-57
2021/11/04 07:51:25;;;;;;;4.10;2.25;;;7.40;92.20;;;;;;5029153;28;20827;-58
2021/11/04 07:53:52;;;;;;;4.00;1.40;;;7.40;92.00;;;;;;5028896;28;20049;-56
2021/11/04 07:56:19;;;;;;;2.63;1.40;;;7.40;92.30;;;;;;5028481;28;20067;-56
2021/11/04 07:58:46;;;;;;;3.78;2.15;;;7.50;92.40;;;;;;5027171;28;20073;-57
2021/11/04 08:01:13;;;;;;;3.40;1.25;;;7.50;92.30;;;;;;4677593;28;10000548;-60
2021/11/04 08:03:44;;;;;;;4.80;1.23;;;7.50;92.30;;;;;;5025418;28;20050;-59
2021/11/04 08:06:12;;;;;;;3.47;1.20;;;7.60;92.50;;;;;;5025094;28;20112;-58
2021/11/04 08:08:39;;;;;;;2.25;1.15;;;7.60;92.30;;;;;;5023244;28;20045;-58
2021/11/04 08:11:06;;;;;;;3.33;1.95;;;7.60;92.30;;;;;;5036082;28;20095;-58
2021/11/04 08:13:33;;;;;;;5.72;1.65;;;7.60;92.40;;;;;;5029011;28;20045;-58
2021/11/04 08:15:59;;;;;;;2.35;1.27;;;7.70;92.30;;;;;;5025577;28;20080;-59
2021/11/04 08:18:26;;;;;;;4.85;1.70;;;7.70;92.40;;;;;;5024552;28;20053;-57
2021/11/04 08:20:53;;;;;;;4.70;1.98;;;7.70;92.30;;;;;;5023655;28;20240;-56
2021/11/04 08:23:20;;;;;;;7.55;1.65;;;7.70;92.40;;;;;;5024787;28;20088;-57
2021/11/04 08:25:46;;;;;;;4.50;1.73;;;7.70;92.50;;;;;;5019386;28;20140;-58
2021/11/04 08:28:13;;;;;;;9.90;2.67;;;7.70;92.40;;;;;;5024821;28;20081;-57
2021/11/04 08:30:40;;;;;;;2.10;1.38;;;7.70;92.50;;;;;;5025307;28;20080;-58
2021/11/04 08:33:10;;;;;;;3.15;1.40;;;7.80;92.50;;;;;;5026920;28;20057;-57
2021/11/04 08:35:37;;;;;;;1.67;1.25;;;7.70;92.30;;;;;;5023583;28;20111;-60
2021/11/04 08:38:04;;;;;;;2.83;1.10;;;7.80;92.30;;;;;;5024968;28;20132;-58
2021/11/04 08:40:30;;;;;;;5.18;1.55;;;7.70;92.40;;;;;;5024725;28;20171;-59
2021/11/04 08:42:59;;;;;;;6.70;1.17;;;7.70;92.10;;;;;;5025102;28;20080;-58
2021/11/04 08:45:25;;;;;;;4.25;1.10;;;7.80;92.40;;;;;;5021536;28;20496;-58
2021/11/04 08:47:52;;;;;;;4.07;1.55;;;7.90;92.30;;;;;;5024815;28;20061;-58
2021/11/04 08:50:20;;;;;;;5.97;1.35;;;7.90;92.40;;;;;;5024678;28;20081;-58
2021/11/04 08:52:52;;;;;;;5.63;2.08;;;7.90;92.30;;;;;;5036201;28;20068;-58
2021/11/04 08:55:19;;;;;;;2.25;1.25;;;7.90;92.60;;;;;;5016774;28;20058;-56
2021/11/04 08:57:46;;;;;;;1.67;1.00;;;7.90;92.40;;;;;;5024398;28;20148;-57
2021/11/04 09:00:13;;;;;;;4.85;1.60;;;8.00;92.40;;;;;;5021874;28;20136;-56
2021/11/04 09:02:40;;;;;;;1.95;1.40;;;8.00;92.40;;;;;;5024218;28;20060;-57
2021/11/04 09:05:08;;;;;;;1.20;1.10;;;8.00;92.40;;;;;;5024135;28;20136;-58
2021/11/04 09:07:38;;;;;;;5.18;1.63;;;8.00;92.20;;;;;;5024508;28;20057;-58
2021/11/04 09:10:07;;;;;;;8.07;1.63;;;8.10;92.30;;;;;;5023155;28;20423;-57
2021/11/04 09:12:35;;;;;;;4.03;2.00;;;8.10;92.40;;;;;;5024301;28;20058;-58
2021/11/04 09:15:02;;;;;;;4.70;1.90;;;8.10;92.50;;;;;;5023994;28;20551;-58
2021/11/04 09:17:29;;;;;;;3.17;1.52;;;8.10;92.30;;;;;;5023246;28;20445;-58
2021/11/04 09:19:56;;;;;;;2.78;1.27;;;8.20;92.30;;;;;;5023583;28;20045;-55
2021/11/04 09:22:23;;;;;;;3.40;1.15;;;8.20;92.30;;;;;;5024200;28;20088;-57
2021/11/04 09:24:50;;;;;;;5.80;1.23;;;8.30;92.40;;;;;;5022108;28;20049;-57
2021/11/04 09:27:17;;;;;;;2.03;1.05;;;8.40;92.30;;;;;;5023539;28;20144;-56
2021/11/04 09:29:45;;;;;;;5.80;1.73;;;8.40;92.40;;;;;;5024509;28;20049;-57
2021/11/04 09:32:12;;;;;;;2.65;1.50;;;8.40;92.30;;;;;;5014401;28;20088;-56
2021/11/04 09:34:56;;;;;;;2.67;1.20;;;8.40;92.30;;;;;;5007300;28;20053;-57
2021/11/04 09:37:23;;;;;;;4.35;1.40;;;8.40;92.20;;;;;;5023898;28;20318;-57
2021/11/04 09:39:50;;;;;;;3.58;1.63;;;8.50;92.20;;;;;;5023862;28;20049;-58
2021/11/04 09:42:23;;;;;;;8.68;1.63;;;8.60;92.00;;;;;;5019926;28;20049;-58
2021/11/04 09:44:51;;;;;;;3.33;1.20;;;8.60;92.10;;;;;;5021961;28;20080;-57
2021/11/04 09:47:28;;;;;;;6.70;1.48;;;8.60;92.00;;;;;;5023300;28;20761;-58
2021/11/04 09:49:59;;;;;;;2.38;1.27;;;8.60;91.40;;;;;;5025811;28;20045;-59
2021/11/04 09:52:27;;;;;;;4.13;1.40;;;8.70;91.70;;;;;;5021148;28;20087;-58
2021/11/04 09:55:00;;;;;;;2.42;1.10;;;8.70;91.80;;;;;;5024584;28;20045;-56
2021/11/04 09:57:27;;;;;;;2.83;1.15;;;8.70;91.70;;;;;;5029658;28;20494;-55
2021/11/04 09:59:54;;;;;;;3.83;1.30;;;8.60;91.90;;;;;;5023561;28;20084;-55
2021/11/04 10:02:25;;;;;;;6.57;1.30;;;8.70;91.90;;;;;;5022950;28;20504;-54
2021/11/04 10:04:53;;;;;;;1.77;0.90;;;8.70;92.00;;;;;;5022406;28;20100;-53
2021/11/04 10:07:21;;;;;;;4.20;1.40;;;8.70;91.90;;;;;;5020376;28;20085;-55
2021/11/04 10:10:00;;;;;;;2.60;1.20;;;8.80;92.10;;;;;;5022359;28;20060;-55
2021/11/04 10:12:27;;;;;;;5.25;1.10;;;8.90;91.90;;;;;;5024894;28;20084;-57
2021/11/04 10:15:11;;;;;;;8.27;1.35;;;8.90;91.60;;;;;;5021252;28;20049;-55
2021/11/04 10:17:38;;;;;;;3.40;1.10;;;8.80;91.50;;;;;;5023261;28;20089;-57
2021/11/04 10:20:16;;;;;;;8.68;1.20;;;8.80;91.90;;;;;;5023784;28;20731;-56
2021/11/04 10:22:43;;;;;;;6.40;1.17;;;8.90;91.90;;;;;;5023599;28;20096;-56
2021/11/04 10:25:23;;;;;;;2.65;1.20;;;9.00;91.90;;;;;;5022355;28;20096;-56
2021/11/04 10:27:49;;;;;;;5.00;1.02;;;9.10;91.80;;;;;;5023475;28;20140;-57
2021/11/04 10:30:40;;;;;;;4.63;1.10;;;9.00;91.70;;;;;;5023809;28;20081;-56
2021/11/04 10:33:17;;;;;;;7.70;1.00;;;9.10;91.50;;;;;;5023519;28;20056;-54
2021/11/04 10:36:05;;;;;;;3.70;0.80;;;9.00;91.60;;;;;;5022167;28;20053;-55
2021/11/04 10:38:39;;;;;;;5.97;1.40;;;9.00;91.70;;;;;;5023742;28;20053;-52
2021/11/04 10:41:30;;;;;;;3.40;0.82;;;9.00;91.80;;;;;;5003424;28;20112;-53
2021/11/04 10:44:03;;;;;;;7.07;1.40;;;8.90;91.70;;;;;;5013544;28;20585;-55
2021/11/04 10:46:30;;;;;;;3.40;1.50;;;8.90;91.90;;;;;;5027751;28;20127;-57
2021/11/04 10:48:59;;;;;;;9.45;1.50;;;9.00;92.10;;;;;;5026757;28;20081;-55
2021/11/04 10:51:27;;;;;;;3.90;1.25;;;9.00;92.10;;;;;;5027796;28;20057;-57
2021/11/04 10:53:58;;;;;;;4.15;1.60;;;9.10;92.00;;;;;;5026138;28;20551;-57
2021/11/04 10:56:29;;;;;;;9.13;1.60;;;9.10;91.90;;;;;;5026454;28;20054;-55
2021/11/04 10:59:00;;;;;;;7.07;1.85;;;9.10;91.80;;;;;;5025070;28;20094;-56
2021/11/04 11:01:41;;;;;;;2.75;1.30;;;9.20;91.70;;;;;;5026550;28;20157;-56
2021/11/04 11:04:22;;;;;;;9.38;1.35;;;9.20;91.20;;;;;;5026008;28;20141;-56
2021/11/04 11:06:50;;;;;;;6.60;2.13;;;9.20;91.60;;;;;;5026949;28;20045;-55
2021/11/04 11:09:19;;;;;;;7.72;1.55;;;9.30;91.50;;;;;;5026208;28;20766;-53
2021/11/04 11:11:48;;;;;;;9.20;3.33;;;9.30;91.20;;;;;;5026768;28;20085;-55
2021/11/04 11:14:19;;;;;;;6.13;1.30;;;9.20;91.40;;;;;;5024777;28;20486;-55
2021/11/04 11:16:54;;;;;;;7.18;1.45;;;9.30;91.70;;;;;;5026078;28;20125;-53
2021/11/04 11:19:40;;;;;;;7.35;1.48;;;9.30;91.20;;;;;;5026448;28;20056;-55
2021/11/04 11:22:07;;;;;;;6.32;1.60;;;9.30;91.30;;;;;;5025514;28;20184;-56
2021/11/04 11:24:39;;;;;;;1.83;1.00;;;9.30;91.40;;;;;;5025725;28;20081;-56
2021/11/04 11:27:14;;;;;;;5.70;1.30;;;9.40;91.20;;;;;;5025187;28;20075;-55
2021/11/04 11:29:42;;;;;;;4.07;1.55;;;9.30;91.30;;;;;;5008767;28;20084;-56
2021/11/04 11:32:23;;;;;;;6.03;2.05;;;9.20;91.30;;;;;;5026722;28;20088;-56
2021/11/04 11:35:09;;;;;;;8.52;1.30;;;9.20;91.30;;;;;;5026179;28;20535;-57
2021/11/04 11:37:36;;;;;;;5.90;1.30;;;9.20;91.40;;;;;;5026697;28;20081;-54
2021/11/04 11:40:08;;;;;;;7.43;1.33;;;9.10;91.50;;;;;;5026562;28;20061;-55
2021/11/04 11:42:35;;;;;;;5.38;1.50;;;9.20;91.30;;;;;;5026475;28;20045;-56
2021/11/04 11:45:13;;;;;;;2.92;1.42;;;9.20;91.40;;;;;;5024747;28;20081;-56
2021/11/04 11:47:42;;;;;;;12.63;2.38;;;9.20;91.40;;;;;;5026693;28;20067;-55
2021/11/04 11:50:18;;;;;;;4.93;2.10;;;9.20;91.00;;;;;;5026507;28;20049;-56
2021/11/04 11:52:54;;;;;;;7.63;2.60;;;9.20;90.90;;;;;;5022620;28;20056;-57
2021/11/04 11:55:37;;;;;;;4.22;1.33;;;9.20;91.20;;;;;;5026051;28;20115;-57
2021/11/04 11:58:32;;;;;;;6.88;1.75;;;9.80;90.90;;;;;;5026767;28;20053;-57
2021/11/04 12:01:09;;;;;;;3.92;1.40;;;9.30;90.80;;;;;;5019031;28;20074;-54
2021/11/04 12:03:40;;;;;;;10.50;3.22;;;9.30;90.70;;;;;;5025489;28;20057;-57
2021/11/04 12:06:16;;;;;;;2.85;1.60;;;9.30;91.00;;;;;;5025717;28;20128;-54
2021/11/04 12:08:50;;;;;;;8.25;1.35;;;9.30;90.80;;;;;;5026431;28;20061;-57
2021/11/04 12:11:41;;;;;;;;;;;9.40;90.70;;;;;;5025834;28;20043;-56
2021/11/04 12:14:17;;;;;;;7.38;1.65;;;9.40;89.00;;;;;;5006606;28;20012;-57
2021/11/04 12:17:14;;;;;;;8.52;1.63;;;9.40;90.30;;;;;;5022321;28;20068;-56
2021/11/04 12:19:44;;;;;;;8.18;1.38;;;9.30;89.80;;;;;;4998235;28;20100;-54
2021/11/04 12:22:32;;;;;;;5.35;1.58;;;9.40;90.80;;;;;;5025071;28;20046;-54
2021/11/04 12:25:04;;;;;;;10.40;2.83;;;9.40;90.50;;;;;;5025799;28;20069;-56
2021/11/04 12:27:40;;;;;;;6.47;1.33;;;9.50;90.50;;;;;;5025548;28;20099;-57
2021/11/04 12:30:19;;;;;;;5.85;1.63;;;9.40;90.30;;;;;;5026408;28;20132;-55
2021/11/04 12:33:10;;;;;;;10.73;1.80;;;9.40;90.40;;;;;;5023613;28;20084;-53
2021/11/04 12:35:51;;;;;;;10.75;1.58;;;9.40;90.00;;;;;;5025678;28;20080;-55
2021/11/04 12:38:19;;;;;;;6.53;1.75;;;9.40;90.50;;;;;;5024058;28;20052;-55
2021/11/04 12:40:47;;;;;;;7.10;1.33;;;9.40;90.00;;;;;;5024470;28;20132;-54
2021/11/04 12:43:14;;;;;;;4.88;1.52;;;9.40;90.50;;;;;;5025809;28;20053;-56
2021/11/04 12:45:45;;;;;;;7.18;1.55;;;9.40;90.50;;;;;;5025922;28;20524;-56
2021/11/04 12:48:13;;;;;;;4.07;1.38;;;9.40;90.30;;;;;;5024274;28;20110;-55
2021/11/04 12:50:55;;;;;;;9.77;1.23;;;9.40;90.30;;;;;;5024645;28;20050;-56
2021/11/04 12:53:21;;;;;;;5.07;1.90;;;9.50;90.30;;;;;;5025612;28;20054;-55
2021/11/04 12:55:51;;;;;;;12.32;1.73;;;9.50;89.70;;;;;;5025345;28;20103;-55
2021/11/04 12:58:18;;;;;;;4.55;1.48;;;9.50;90.20;;;;;;5024975;28;20075;-57
2021/11/04 13:00:44;;;;;;;8.18;1.67;;;9.50;90.10;;;;;;5025204;28;20046;-56
2021/11/04 13:03:14;;;;;;;6.38;2.00;;;9.40;90.10;;;;;;5025187;28;20046;-55
2021/11/04 13:05:41;;;;;;;9.57;2.03;;;9.50;89.90;;;;;;5025537;28;20064;-55
2021/11/04 13:08:09;;;;;;;6.60;1.73;;;9.50;89.60;;;;;;5024388;28;20080;-55
2021/11/04 13:10:37;;;;;;;7.50;1.10;;;9.50;90.20;;;;;;5025649;28;20088;-53